• Join FlightAware (Why Join?)
  • Login
  • US Flag 
09:24PM EDT


 

Airport Tracker/Info


-or-


 

Live Flight TrackerFlight Track Log ✈ SKW7387 ✈ 09-May-2013 ✈ KSLC - KEKO

Flight Track Log - Related Links

Times and Time Zones

All times are in EDT time to prevent confusion due to time zone crossing. See the SKW7387 flight status page for this flight to view local times or setup timezone preferences in your user account.

Time Position Orientation Groundspeed Altitude Reporting Facility
EDT Latitude Longitude Course Direction KTS MPH feet Rate Location/Type
06:58PM 40.8086 -112.0014 276° West 148 170 4,800  Level Salt Lake Center
06:59PM 40.8258 -112.0664 289° West 194 223 6,400 1,440 Climbing Salt Lake Center
07:00PM 40.8292 -112.0983 278° West 205 236 7,100 1,680 Climbing Salt Lake Center
07:00PM 40.8328 -112.1689 274° West 220 253 8,600 1,500 Climbing Salt Lake Center
07:01PM 40.8308 -112.1767 252° West 218 251 8,700 1,440 Climbing Salt Lake Center
07:02PM 40.8057 -112.4230 276° West  Level FlightAware Approximate
07:02PM 40.8272 -112.2633 267° West 234 269 10,500  Level Salt Lake Center
07:03PM 40.8144 -112.5370 276° West  Level FlightAware Approximate
07:03PM 40.8253 -112.3531 268° West 244 281 11,900  Level Salt Lake Center
07:04PM 40.8222 -112.4642 268° West 252 290 13,500 1,500 Climbing Salt Lake Center
07:05PM 40.8297 -112.5533 276° West 244 281 15,000 1,260 Climbing Salt Lake Center
07:06PM 40.8358 -112.6453 275° West 252 290 16,100 1,020 Climbing Salt Lake Center
07:07PM 40.8406 -112.7394 274° West 256 295 17,200 840 Climbing Salt Lake Center
07:08PM 40.8422 -112.8386 271° West 271 312 17,900 660 Climbing Salt Lake Center
07:09PM 40.8436 -112.9417 271° West 281 323 18,600 780 Climbing Salt Lake Center
07:10PM 40.8425 -113.0453 269° West 284 327 19,500 780 Climbing Salt Lake Center
07:11PM 40.8431 -113.1514 270° West 289 333 20,300 780 Climbing Salt Lake Center
07:12PM 40.8439 -113.2769 271° West 289 333 21,200 720 Climbing Salt Lake Center
07:13PM 40.8453 -113.3800 271° West 284 327 21,900 780 Climbing Salt Lake Center
07:14PM 40.8442 -113.4844 269° West 285 328 22,800 780 Climbing Salt Lake Center
07:15PM 40.8431 -113.5900 269° West 287 330 23,600 600 Climbing Salt Lake Center
07:16PM 40.8433 -113.6942 270° West 285 328 24,100 240 Climbing Salt Lake Center
07:17PM 40.8425 -113.8022 269° West 294 338 24,100  Level Salt Lake Center
07:18PM 40.8417 -113.9122 269° West 299 344 24,100  Level Salt Lake Center
07:19PM 40.8364 -114.0206 266° West 297 342 24,100  Level Salt Lake Center
07:20PM 40.8314 -114.1506 267° West 297 342 24,100  Level Salt Lake Center
07:21PM 40.8289 -114.2600 268° West 298 343 24,100  Level Salt Lake Center
07:22PM 40.8161 -114.3664 261° West 295 339 24,100  Level Salt Lake Center
07:23PM 40.7908 -114.4672 252° West 297 342 24,100  Level Salt Lake Center
07:24PM 40.7683 -114.5783 255° West 301 346 24,100 -120 Level Salt Lake Center
07:25PM 40.7492 -114.6856 257° West 301 346 23,900 -540 Descending Salt Lake Center
07:26PM 40.7314 -114.8142 260° West 306 352 23,100 -1,020 Descending Salt Lake Center
07:27PM 40.7289 -114.9258 268° West 314 361 21,900 -1,500 Descending Salt Lake Center
07:28PM 40.7475 -115.0575 281° West 322 371 20,100 -1,620 Descending Salt Lake Center
07:29PM 40.7614 -115.1672 280° West 320 368 18,600 -1,740 Descending Salt Lake Center
07:30PM 40.7397 -115.2747 255° West 318 366 16,600 -2,160 Descending Salt Lake Center
07:31PM 40.7633 -115.3983 284° West 314 361 14,200 -2,160 Descending Salt Lake Center
07:33PM 40.7775 -115.5019 280° West 307 353 12,200 -2,340 Descending Salt Lake Center
07:34PM 40.7944 -115.6197 281° West 299 344 9,400 -2,280 Descending Salt Lake Center
07:35PM 40.8047 -115.7167 278° West 291 335 7,600 -1,800 Descending Salt Lake Center